Time;durP1;ratioP1;P1;durP2;ratioP2;P2;SDS_P1;SDS_P2;PMS_P1;PMS_P2;Temp;Humidity;BMP_temperature;BMP_pressure;BME280_temperature;BME280_humidity;BME280_pressure;Samples;Min_cycle;Max_cycle;Signal;HPM_P1;HPM_P2
2023/05/16 00:00:34;;;;;;;3.50;2.30;;;;;;;16.15;39.68;100905.34;107540;1254;99173;-70
2023/05/16 00:03:22;;;;;;;4.20;2.40;;;;;;;16.15;39.67;100902.48;107605;1251;99061;-69
2023/05/16 00:05:50;;;;;;;9.60;2.60;;;;;;;16.12;39.56;100891.84;107649;1251;112660;-69
2023/05/16 00:08:19;;;;;;;3.00;1.70;;;;;;;16.11;39.66;100894.86;107627;1257;109228;-69
2023/05/16 00:10:47;;;;;;;3.50;2.20;;;;;;;16.09;39.60;100890.91;107576;1251;108116;-68
2023/05/16 00:13:21;;;;;;;3.60;2.10;;;;;;;16.06;39.62;100889.00;107607;1251;99166;-70
2023/05/16 00:15:50;;;;;;;6.30;2.30;;;;;;;16.05;39.67;100891.52;107635;1251;99041;-68
2023/05/16 00:18:25;;;;;;;6.80;2.30;;;;;;;16.03;39.66;100901.91;107596;1251;112265;-69
2023/05/16 00:20:55;;;;;;;5.40;2.60;;;;;;;16.01;39.50;100906.83;107608;1251;109540;-68
2023/05/16 00:23:24;;;;;;;6.60;2.20;;;;;;;15.98;39.62;100912.42;107556;1254;108258;-67
2023/05/16 00:25:52;;;;;;;4.40;3.10;;;;;;;15.94;39.74;100920.24;107538;1251;99294;-67
2023/05/16 00:28:21;;;;;;;6.30;2.70;;;;;;;15.90;39.85;100913.76;107591;1251;99172;-66
2023/05/16 00:30:50;;;;;;;9.00;3.40;;;;;;;15.87;40.19;100910.38;107632;1256;112028;-68
2023/05/16 00:33:18;;;;;;;4.30;2.10;;;;;;;15.85;40.59;100911.70;107592;1251;109431;-67
2023/05/16 00:35:48;;;;;;;3.90;2.30;;;;;;;15.81;40.56;100909.45;107565;1256;107785;-67
2023/05/16 00:38:18;;;;;;;5.20;2.30;;;;;;;15.80;40.57;100901.11;107604;1251;99029;-66
2023/05/16 00:40:47;;;;;;;11.90;2.40;;;;;;;15.80;40.47;100900.54;107667;1256;99351;-70
2023/05/16 00:43:15;;;;;;;5.60;2.30;;;;;;;15.80;40.45;100905.77;107568;1257;112812;-71
2023/05/16 00:45:44;;;;;;;9.50;2.90;;;;;;;15.80;40.43;100899.79;107607;1251;108617;-69
2023/05/16 00:48:14;;;;;;;3.90;2.30;;;;;;;15.80;40.62;100894.75;107611;1251;107718;-69
2023/05/16 00:50:43;;;;;;;3.00;2.30;;;;;;;15.79;40.85;100892.20;107614;1251;99336;-67
2023/05/16 00:53:12;;;;;;;11.70;3.10;;;;;;;15.76;41.16;100893.95;107557;1255;99710;-67
2023/05/16 00:55:40;;;;;;;4.70;2.50;;;;;;;15.73;41.44;100883.67;107569;1251;111964;-67
2023/05/16 00:58:10;;;;;;;4.60;2.80;;;;;;;15.66;41.74;100876.05;107571;1251;109072;-68
2023/05/16 01:00:39;;;;;;;3.80;2.70;;;;;;;15.62;41.61;100875.22;107587;1251;109218;-67
2023/05/16 01:03:08;;;;;;;3.90;2.70;;;;;;;15.61;41.99;100868.40;107613;1257;99172;-73
2023/05/16 01:05:39;;;;;;;5.40;2.80;;;;;;;15.57;42.12;100863.63;107606;1251;99693;-67
2023/05/16 01:08:07;;;;;;;4.70;2.60;;;;;;;15.57;41.59;100876.87;107571;1251;112002;-68
2023/05/16 01:10:48;;;;;;;4.30;2.10;;;;;;;15.59;41.32;100885.78;107614;1254;109082;-69
2023/05/16 01:13:40;;;;;;;8.10;3.20;;;;;;;15.63;40.89;100886.30;107601;1251;108145;-68
2023/05/16 01:16:37;;;;;;;6.70;2.40;;;;;;;15.68;40.53;100907.51;107582;1251;99345;-67
2023/05/16 01:19:27;;;;;;;8.30;2.50;;;;;;;15.71;40.66;100914.59;107623;1251;99697;-70
2023/05/16 01:22:16;;;;;;;9.20;4.00;;;;;;;15.71;40.75;100915.48;107583;1251;113084;-67
2023/05/16 01:25:09;;;;;;;10.10;2.60;;;;;;;15.70;40.70;100908.33;107520;1254;109966;-70
2023/05/16 01:27:38;;;;;;;5.40;2.60;;;;;;;15.70;40.99;100907.64;107675;1251;108288;-68
2023/05/16 01:30:15;;;;;;;7.20;2.40;;;;;;;15.71;40.11;100903.52;107599;1251;99036;-73
2023/05/16 01:32:44;;;;;;;10.70;2.50;;;;;;;15.72;40.46;100901.89;107566;1253;99075;-73
2023/05/16 01:35:15;;;;;;;5.10;2.20;;;;;;;15.68;40.97;100891.27;107601;1251;113811;-72
2023/05/16 01:38:00;;;;;;;6.30;2.40;;;;;;;15.67;40.28;100896.23;107625;1254;110211;-67
2023/05/16 01:40:51;;;;;;;3.60;2.20;;;;;;;15.69;39.91;100897.57;107568;1255;108752;-67
2023/05/16 01:43:48;;;;;;;5.20;2.00;;;;;;;15.71;39.40;100889.67;107661;1251;99333;-68
2023/05/16 01:46:25;;;;;;;5.90;2.40;;;;;;;15.74;39.38;100888.05;107590;1251;99086;-68
2023/05/16 01:49:21;;;;;;;4.40;2.30;;;;;;;15.76;39.17;100890.16;107631;1251;112318;-68
2023/05/16 01:51:54;;;;;;;4.30;2.30;;;;;;;15.78;39.06;100880.02;107629;1251;109571;-66
2023/05/16 01:54:25;;;;;;;9.30;2.30;;;;;;;15.79;38.97;100881.35;107591;1254;108633;-68
2023/05/16 01:56:55;;;;;;;10.20;2.30;;;;;;;15.81;38.90;100887.27;107629;1252;99241;-68
2023/05/16 01:59:25;;;;;;;4.40;2.10;;;;;;;15.81;38.95;100885.09;107658;1251;100683;-70
2023/05/16 02:01:58;;;;;;;6.80;2.20;;;;;;;15.80;39.22;100887.00;107642;1251;113859;-68
2023/05/16 02:04:26;;;;;;;3.80;1.90;;;;;;;15.78;39.38;100890.12;107476;1254;110116;-67
2023/05/16 02:06:55;;;;;;;4.00;2.00;;;;;;;15.78;39.15;100890.12;107663;1256;108486;-66
2023/05/16 02:09:24;;;;;;;8.80;2.30;;;;;;;15.78;39.32;100902.60;107502;1254;99257;-67
2023/05/16 02:11:53;;;;;;;5.90;2.40;;;;;;;15.77;39.58;100912.10;107626;1255;99871;-67
2023/05/16 02:14:21;;;;;;;4.20;2.10;;;;;;;15.75;39.97;100912.84;107588;1251;113645;-68
2023/05/16 02:16:50;;;;;;;5.10;2.20;;;;;;;15.73;39.91;100913.02;107680;1254;109592;-67
2023/05/16 02:19:19;;;;;;;4.40;2.40;;;;;;;15.73;39.93;100913.31;107601;1251;108165;-68
2023/05/16 02:21:49;;;;;;;4.00;2.20;;;;;;;15.73;39.81;100914.19;107593;1251;99210;-68
2023/05/16 02:24:18;;;;;;;13.40;2.30;;;;;;;15.73;39.69;100914.58;107678;1251;99298;-67
2023/05/16 02:26:46;;;;;;;4.70;2.50;;;;;;;15.72;39.92;100918.77;107602;1251;112623;-67
2023/05/16 02:29:15;;;;;;;8.50;2.10;;;;;;;15.71;39.99;100913.54;107616;1251;109582;-69
2023/05/16 02:31:44;;;;;;;5.70;2.30;;;;;;;15.69;40.04;100916.38;107610;1251;107688;-68
2023/05/16 02:34:12;;;;;;;12.80;3.20;;;;;;;15.68;40.19;100920.15;107586;1254;99811;-66
2023/05/16 02:36:42;;;;;;;5.90;2.40;;;;;;;15.67;40.27;100918.08;107654;1254;99700;-67
2023/05/16 02:39:10;;;;;;;7.60;2.50;;;;;;;15.67;40.31;100924.44;107550;1251;113762;-66
2023/05/16 02:41:39;;;;;;;4.40;2.60;;;;;;;15.66;40.37;100921.45;107636;1251;109596;-67
2023/05/16 02:44:09;;;;;;;4.10;2.40;;;;;;;15.65;40.45;100917.92;107575;1251;108510;-67
2023/05/16 02:46:38;;;;;;;4.30;2.40;;;;;;;15.64;40.62;100921.09;107635;1251;99044;-68
2023/05/16 02:49:06;;;;;;;8.00;2.70;;;;;;;15.64;40.89;100927.46;107588;1253;99099;-66
2023/05/16 02:51:35;;;;;;;4.90;2.40;;;;;;;15.63;40.77;100926.59;107566;1253;112561;-68
2023/05/16 02:54:04;;;;;;;5.50;2.50;;;;;;;15.63;40.99;100930.06;107698;1251;109055;-66
2023/05/16 02:56:32;;;;;;;7.00;2.50;;;;;;;15.62;41.02;100930.84;107641;1251;109066;-68
2023/05/16 02:59:02;;;;;;;4.80;3.00;;;;;;;15.62;41.12;100926.02;107586;1254;99130;-67
2023/05/16 03:01:31;;;;;;;7.90;3.30;;;;;;;15.63;41.18;100929.19;107670;1254;99301;-68
2023/05/16 03:04:00;;;;;;;8.00;3.10;;;;;;;15.63;41.15;100932.64;107686;1254;112639;-66
2023/05/16 03:06:31;;;;;;;5.00;2.50;;;;;;;15.64;41.12;100930.51;107651;1254;110022;-66
2023/05/16 03:08:59;;;;;;;7.20;2.40;;;;;;;15.65;41.13;100932.54;107616;1255;107666;-68
2023/05/16 03:11:28;;;;;;;6.80;3.30;;;;;;;15.66;41.18;100932.85;107618;1254;99169;-68
2023/05/16 03:13:58;;;;;;;8.60;3.10;;;;;;;15.68;41.31;100938.08;107667;1254;99261;-68
2023/05/16 03:16:29;;;;;;;9.90;3.00;;;;;;;15.70;41.37;100945.61;107620;1254;113018;-67
2023/05/16 03:18:57;;;;;;;10.40;2.90;;;;;;;15.72;41.37;100945.89;107663;1251;108879;-68
2023/05/16 03:21:26;;;;;;;5.70;3.30;;;;;;;15.74;41.36;100944.96;107582;1251;108509;-67
2023/05/16 03:23:55;;;;;;;9.10;3.30;;;;;;;15.76;41.43;100944.57;107557;1253;99706;-67
2023/05/16 03:26:24;;;;;;;9.20;2.50;;;;;;;15.79;41.39;100942.30;107657;1251;99712;-67
2023/05/16 03:28:53;;;;;;;5.10;2.70;;;;;;;15.81;41.37;100951.27;107596;1254;112746;-66
2023/05/16 03:31:22;;;;;;;11.10;4.20;;;;;;;15.84;41.56;100943.45;107670;1251;108080;-65
2023/05/16 03:33:50;;;;;;;9.70;3.00;;;;;;;15.86;41.52;100936.69;107621;1251;108422;-67
2023/05/16 03:36:23;;;;;;;7.10;3.40;;;;;;;15.90;41.71;100932.29;107638;1257;99168;-69
2023/05/16 03:38:51;;;;;;;4.10;2.90;;;;;;;15.94;41.70;100926.80;107491;1254;99243;-69
2023/05/16 03:41:21;;;;;;;8.60;3.00;;;;;;;15.98;41.66;100928.90;107649;1253;112437;-67
2023/05/16 03:43:49;;;;;;;6.40;2.50;;;;;;;16.02;41.35;100928.23;107699;1251;108883;-67
2023/05/16 03:46:17;;;;;;;7.20;3.30;;;;;;;16.07;41.38;100925.90;107631;1251;108170;-69
2023/05/16 03:48:46;;;;;;;6.60;2.70;;;;;;;16.13;41.23;100921.27;107618;1251;99169;-68
2023/05/16 03:51:15;;;;;;;9.20;5.40;;;;;;;16.17;41.16;100927.20;107644;1251;99109;-66
2023/05/16 03:53:43;;;;;;;14.30;2.80;;;;;;;16.20;41.12;100932.20;107620;1250;112563;-69
2023/05/16 03:56:11;;;;;;;9.40;2.80;;;;;;;16.25;41.22;100933.09;107616;1254;110440;-65
2023/05/16 03:58:39;;;;;;;8.00;2.90;;;;;;;16.28;41.15;100933.86;107574;1251;106979;-70
2023/05/16 04:01:08;;;;;;;6.20;3.20;;;;;;;16.31;40.89;100935.23;107610;1251;99044;-68
2023/05/16 04:03:37;;;;;;;7.10;2.70;;;;;;;16.34;41.05;100932.35;107620;1251;99713;-68
2023/05/16 04:06:07;;;;;;;7.50;2.80;;;;;;;16.38;41.09;100929.96;107582;1251;113027;-70
2023/05/16 04:08:35;;;;;;;12.30;3.50;;;;;;;16.40;41.30;100933.12;107618;1251;109891;-67
2023/05/16 04:11:03;;;;;;;12.60;3.40;;;;;;;16.40;41.45;100935.46;107578;1254;108135;-67
2023/05/16 04:13:32;;;;;;;7.30;2.80;;;;;;;16.40;41.54;100939.88;107500;1251;99185;-67
2023/05/16 04:16:00;;;;;;;6.40;3.00;;;;;;;16.40;41.89;100950.39;107622;1251;99257;-67
2023/05/16 04:18:29;;;;;;;20.50;3.50;;;;;;;16.40;42.20;100953.27;107589;1251;112622;-67
2023/05/16 04:20:57;;;;;;;11.80;3.20;;;;;;;16.40;42.48;100955.05;107607;1253;109795;-69
2023/05/16 04:23:25;;;;;;;6.30;2.70;;;;;;;16.40;42.62;100959.77;107616;1254;109097;-67
2023/05/16 04:25:55;;;;;;;9.20;3.00;;;;;;;16.40;42.55;100963.00;107557;1254;99250;-67
2023/05/16 04:28:24;;;;;;;9.00;3.20;;;;;;;16.41;42.74;100968.55;107638;1251;99185;-66
2023/05/16 04:30:53;;;;;;;14.90;2.80;;;;;;;16.42;43.05;100972.42;107511;1251;111614;-70
2023/05/16 04:33:21;;;;;;;13.60;3.40;;;;;;;16.42;43.18;100972.05;107500;1251;110105;-66
2023/05/16 04:35:51;;;;;;;11.50;3.40;;;;;;;16.44;43.22;100973.27;107613;1254;108206;-70
2023/05/16 04:38:20;;;;;;;12.30;3.40;;;;;;;16.47;43.50;100974.04;107586;1256;99224;-70
2023/05/16 04:40:50;;;;;;;13.00;3.80;;;;;;;16.49;43.67;100973.02;107665;1253;99765;-66
2023/05/16 04:43:19;;;;;;;26.60;4.00;;;;;;;16.51;43.61;100972.48;107616;1254;113546;-72
2023/05/16 04:45:47;;;;;;;11.60;3.40;;;;;;;16.53;43.68;100974.09;107623;1254;110562;-68
2023/05/16 04:48:16;;;;;;;12.30;3.40;;;;;;;16.53;43.93;100972.81;107613;1256;106667;-68
2023/05/16 04:50:44;;;;;;;8.00;3.60;;;;;;;16.55;44.04;100975.85;107579;1254;99182;-67
2023/05/16 04:53:13;;;;;;;22.90;4.10;;;;;;;16.58;43.74;100979.27;107531;1254;99232;-68
2023/05/16 04:55:42;;;;;;;19.60;4.00;;;;;;;16.64;43.73;100978.12;107548;1251;113563;-67
2023/05/16 04:58:10;;;;;;;10.50;3.30;;;;;;;16.72;43.57;100971.81;107615;1254;108693;-70
2023/05/16 05:00:39;;;;;;;8.40;3.50;;;;;;;16.78;43.47;100969.33;107563;1253;107280;-72
2023/05/16 05:03:07;;;;;;;9.30;2.60;;;;;;;16.85;43.45;100974.11;107505;1250;99361;-69
2023/05/16 05:05:36;;;;;;;6.30;2.80;;;;;;;16.90;43.31;100970.86;107629;1251;99975;-67
2023/05/16 05:08:05;;;;;;;12.30;2.90;;;;;;;16.96;43.19;100971.49;107699;1254;112310;-67
2023/05/16 05:10:33;;;;;;;12.60;2.90;;;;;;;17.02;43.05;100974.08;107554;1254;109137;-70
2023/05/16 05:13:02;;;;;;;11.70;3.00;;;;;;;17.10;42.96;100975.20;107555;1254;107807;-72
2023/05/16 05:15:30;;;;;;;9.30;4.00;;;;;;;17.17;42.80;100981.30;107529;1251;99216;-67
2023/05/16 05:17:58;;;;;;;7.50;3.50;;;;;;;17.22;42.47;100981.05;107552;1250;99713;-67
2023/05/16 05:20:27;;;;;;;10.60;3.90;;;;;;;17.28;42.28;100974.85;107575;1254;113710;-67
2023/05/16 05:22:56;;;;;;;8.60;2.80;;;;;;;17.32;42.23;100968.50;107570;1254;110472;-68
2023/05/16 05:25:25;;;;;;;18.40;4.50;;;;;;;17.37;42.03;100975.42;107548;1254;107550;-67
2023/05/16 05:27:54;;;;;;;14.50;3.70;;;;;;;17.42;41.81;100979.57;107557;1251;99175;-68
2023/05/16 05:30:23;;;;;;;12.20;2.90;;;;;;;17.47;41.68;100979.86;107615;1251;99713;-66
2023/05/16 05:32:52;;;;;;;12.80;3.20;;;;;;;17.52;41.65;100975.86;107541;1251;111668;-69
2023/05/16 05:35:21;;;;;;;17.50;3.80;;;;;;;17.54;41.71;100966.37;107572;1251;109590;-67
2023/05/16 05:37:50;;;;;;;12.30;3.00;;;;;;;17.67;41.82;100970.18;107552;1251;109140;-68
2023/05/16 05:40:19;;;;;;;7.80;3.00;;;;;;;17.75;41.27;100971.19;107522;1254;99172;-69
2023/05/16 05:42:47;;;;;;;14.30;3.00;;;;;;;17.81;41.19;100974.08;107580;1251;99152;-72
2023/05/16 05:45:17;;;;;;;6.70;2.60;;;;;;;17.89;40.96;100976.83;107543;1254;112972;-68
2023/05/16 05:47:45;;;;;;;9.10;3.30;;;;;;;17.97;40.92;100968.84;107596;1251;109656;-67
2023/05/16 05:50:14;;;;;;;17.70;3.40;;;;;;;18.07;40.41;100968.23;107542;1251;108946;-67
2023/05/16 05:52:43;;;;;;;9.50;3.40;;;;;;;18.14;40.36;100967.13;107462;1254;99259;-68
2023/05/16 05:55:13;;;;;;;14.00;3.00;;;;;;;18.20;40.11;100965.52;107681;1251;99742;-73
2023/05/16 05:57:44;;;;;;;13.00;2.50;;;;;;;18.24;40.09;100968.64;107486;1257;113538;-69
2023/05/16 06:00:15;;;;;;;7.60;2.70;;;;;;;18.32;39.81;100966.98;107639;1253;109276;-66
2023/05/16 06:02:43;;;;;;;14.40;2.20;;;;;;;18.38;39.91;100970.91;107584;1253;109357;-70
2023/05/16 06:05:12;;;;;;;11.70;2.70;;;;;;;18.47;39.24;100977.69;107578;1254;99172;-72
2023/05/16 06:07:41;;;;;;;5.10;2.30;;;;;;;18.55;38.74;100972.58;107660;1253;99762;-71
2023/05/16 06:10:18;;;;;;;13.10;2.90;;;;;;;18.59;38.50;100973.58;107649;1254;112646;-70
2023/05/16 06:13:18;;;;;;;13.60;3.00;;;;;;;18.67;38.86;100979.59;107501;1254;110122;-70
2023/05/16 06:15:53;;;;;;;6.40;2.80;;;;;;;18.76;38.48;100982.08;107613;1253;108244;-70
2023/05/16 06:18:21;;;;;;;14.00;3.60;;;;;;;18.90;38.99;100980.10;107594;1254;99179;-71
2023/05/16 06:20:49;;;;;;;11.80;2.40;;;;;;;19.05;38.75;100989.91;107669;1253;101279;-67
2023/05/16 06:23:17;;;;;;;11.50;2.40;;;;;;;19.16;38.52;100986.20;107682;1252;112518;-69
2023/05/16 06:25:49;;;;;;;10.50;2.60;;;;;;;19.28;38.72;100983.02;107639;1254;110983;-70
2023/05/16 06:28:18;;;;;;;4.90;2.30;;;;;;;19.44;38.43;100985.36;107652;1256;108852;-71
2023/05/16 06:30:46;;;;;;;15.60;2.90;;;;;;;19.61;37.98;100984.83;107583;1253;99150;-69
2023/05/16 06:33:15;;;;;;;6.00;2.00;;;;;;;19.78;37.68;100992.30;107656;1254;99236;-71
2023/05/16 06:35:44;;;;;;;6.80;1.80;;;;;;;19.94;37.01;100987.39;107651;1254;113105;-69
2023/05/16 06:38:12;;;;;;;6.10;2.30;;;;;;;20.08;36.66;100984.13;107618;1253;108403;-70
2023/05/16 06:40:40;;;;;;;6.40;2.40;;;;;;;20.23;36.76;100980.34;107603;1254;109252;-73
2023/05/16 06:43:09;;;;;;;7.00;2.60;;;;;;;20.42;36.40;100983.75;107454;1254;99101;-71
2023/05/16 06:45:37;;;;;;;4.80;2.40;;;;;;;20.57;35.95;100988.46;107679;1252;99067;-68
2023/05/16 06:48:07;;;;;;;5.60;2.60;;;;;;;20.69;35.59;100994.20;107620;1251;113144;-69
2023/05/16 06:50:35;;;;;;;3.20;1.90;;;;;;;20.78;35.22;100992.41;107619;1253;109181;-67
2023/05/16 06:53:06;;;;;;;7.10;2.20;;;;;;;20.83;34.96;100989.91;107627;1254;107014;-72
2023/05/16 06:55:34;;;;;;;6.40;2.00;;;;;;;20.87;34.70;100991.38;107597;1253;99216;-68
2023/05/16 06:58:03;;;;;;;5.90;2.30;;;;;;;20.90;34.43;100989.96;107616;1254;99229;-68
2023/05/16 07:00:31;;;;;;;6.30;2.00;;;;;;;20.93;34.65;100990.45;107640;1251;113148;-71
2023/05/16 07:03:00;;;;;;;12.10;2.70;;;;;;;20.97;34.66;100985.64;107654;1254;109485;-67
2023/05/16 07:05:31;;;;;;;8.80;2.40;;;;;;;21.02;34.83;100985.88;107578;1251;107572;-71
2023/05/16 07:07:59;;;;;;;14.70;3.00;;;;;;;21.06;34.53;100987.59;107589;1251;99182;-69
2023/05/16 07:10:28;;;;;;;8.90;2.60;;;;;;;21.09;34.58;100986.13;107669;1250;99947;-68
2023/05/16 07:12:57;;;;;;;11.60;2.20;;;;;;;21.15;34.61;100988.77;107560;1250;113034;-68
2023/05/16 07:15:25;;;;;;;3.40;1.90;;;;;;;21.24;34.58;100990.39;107530;1252;109042;-70
2023/05/16 07:17:54;;;;;;;7.30;2.30;;;;;;;21.28;34.16;100989.07;107596;1254;109213;-67
2023/05/16 07:20:23;;;;;;;9.70;2.40;;;;;;;21.28;33.89;100987.17;107623;1251;99181;-68
2023/05/16 07:22:51;;;;;;;5.00;2.20;;;;;;;21.30;34.35;100986.55;107640;1251;99688;-69
2023/05/16 07:25:20;;;;;;;5.30;2.30;;;;;;;21.35;33.99;100982.71;107604;1254;112653;-68
2023/05/16 07:27:49;;;;;;;7.20;2.90;;;;;;;21.35;33.89;100976.52;107659;1251;110122;-68
2023/05/16 07:30:18;;;;;;;11.50;2.60;;;;;;;21.39;34.03;100974.01;107613;1254;107133;-70
2023/05/16 07:32:48;;;;;;;10.70;2.60;;;;;;;21.44;34.05;100976.44;107455;1254;99067;-67
2023/05/16 07:35:18;;;;;;;10.10;2.60;;;;;;;21.49;34.14;100979.81;107619;1251;99713;-68
2023/05/16 07:37:46;;;;;;;9.00;2.30;;;;;;;21.57;34.25;100984.38;107585;1254;113558;-69
2023/05/16 07:40:17;;;;;;;5.80;2.50;;;;;;;21.70;33.67;100987.81;107603;1251;110024;-67
2023/05/16 07:42:45;;;;;;;13.00;2.60;;;;;;;21.80;33.53;100991.98;107507;1251;108175;-67
2023/05/16 07:45:13;;;;;;;11.50;2.60;;;;;;;21.85;33.66;100988.36;107492;1251;99134;-67
2023/05/16 07:47:42;;;;;;;4.50;2.20;;;;;;;21.91;33.80;100990.91;107537;1251;99181;-70
2023/05/16 07:50:11;;;;;;;13.60;2.80;;;;;;;22.00;33.82;100989.55;107596;1254;113245;-67
2023/05/16 07:52:39;;;;;;;12.10;2.60;;;;;;;22.09;34.06;100991.77;107713;1252;108356;-68
2023/05/16 07:55:08;;;;;;;7.80;2.20;;;;;;;22.18;33.56;100983.18;107597;1255;107721;-68
2023/05/16 07:57:37;;;;;;;12.30;2.40;;;;;;;22.25;34.10;100976.48;107581;1256;99648;-68
2023/05/16 08:00:06;;;;;;;5.70;2.10;;;;;;;22.37;33.40;100981.73;107324;1251;294804;-73
2023/05/16 08:02:39;;;;;;;10.50;2.90;;;;;;;22.42;33.58;100980.00;107559;1251;111549;-70
2023/05/16 08:05:08;;;;;;;7.50;2.00;;;;;;;22.52;33.35;100973.41;107542;1251;109900;-68
2023/05/16 08:07:37;;;;;;;6.90;2.70;;;;;;;22.65;32.88;100975.61;107576;1254;107663;-68
2023/05/16 08:10:06;;;;;;;6.20;2.40;;;;;;;22.79;32.38;100975.55;107512;1251;99156;-68
2023/05/16 08:12:35;;;;;;;6.60;1.70;;;;;;;22.89;31.84;100970.14;107509;1251;99044;-66
2023/05/16 08:15:06;;;;;;;6.10;2.20;;;;;;;23.01;31.93;100971.39;107571;1251;112244;-70
2023/05/16 08:17:34;;;;;;;32.70;3.40;;;;;;;23.15;32.05;100967.05;107542;1251;109600;-68
2023/05/16 08:20:03;;;;;;;9.80;2.10;;;;;;;23.43;32.41;100973.61;107540;1251;108895;-68
2023/05/16 08:22:32;;;;;;;7.70;2.30;;;;;;;23.64;31.62;100965.63;107596;1251;99159;-70
2023/05/16 08:25:00;;;;;;;12.70;2.50;;;;;;;23.85;31.19;100974.44;107561;1251;99147;-67
2023/05/16 08:27:29;;;;;;;13.40;2.40;;;;;;;24.03;30.81;100970.27;107514;1251;111688;-69
2023/05/16 08:29:58;;;;;;;7.10;2.20;;;;;;;24.18;30.55;100973.17;107564;1251;109992;-68
2023/05/16 08:32:26;;;;;;;8.40;2.10;;;;;;;24.29;30.59;100975.08;107634;1251;108963;-68
2023/05/16 08:34:55;;;;;;;11.20;2.60;;;;;;;24.43;30.81;100969.89;107554;1254;99375;-71
2023/05/16 08:37:23;;;;;;;6.10;2.40;;;;;;;24.59;31.17;100963.21;107593;1251;99073;-69
2023/05/16 08:39:52;;;;;;;7.60;1.90;;;;;;;24.80;30.59;100966.27;107517;1254;112956;-69
2023/05/16 08:42:20;;;;;;;7.20;2.30;;;;;;;25.02;30.35;100964.09;107551;1250;109947;-68
2023/05/16 08:44:48;;;;;;;7.00;2.30;;;;;;;25.29;29.55;100964.09;107549;1251;108172;-69
2023/05/16 08:47:24;;;;;;;10.50;2.10;;;;;;;25.51;29.34;100961.02;107495;1251;99951;-67
2023/05/16 08:49:57;;;;;;;7.10;2.20;;;;;;;25.71;29.37;100957.15;107666;1251;99204;-69
2023/05/16 08:52:30;;;;;;;11.00;2.30;;;;;;;25.90;28.78;100964.39;107577;1250;113374;-71
2023/05/16 08:55:04;;;;;;;5.70;2.10;;;;;;;26.00;28.02;100970.54;107541;1251;110412;-69
2023/05/16 08:57:40;;;;;;;10.40;2.20;;;;;;;25.85;28.11;100975.39;107618;1251;108123;-69
2023/05/16 09:00:10;;;;;;;5.40;1.80;;;;;;;25.74;28.54;100972.11;107613;1251;99163;-69
2023/05/16 09:02:43;;;;;;;12.50;2.60;;;;;;;25.65;28.69;100972.91;107632;1250;99054;-69
2023/05/16 09:05:14;;;;;;;19.00;2.80;;;;;;;25.50;29.09;100965.60;107669;1251;113129;-70
2023/05/16 09:07:43;;;;;;;4.50;2.70;;;;;;;25.50;29.36;100959.64;107590;1251;109720;-69
2023/05/16 09:10:12;;;;;;;6.30;2.00;;;;;;;25.56;29.89;100956.64;107584;1254;107715;-73
2023/05/16 09:12:42;;;;;;;8.90;2.30;;;;;;;25.66;29.70;100960.60;107646;1251;99048;-69
2023/05/16 09:15:11;;;;;;;7.20;3.00;;;;;;;25.73;29.84;100962.12;107635;1251;99064;-73
2023/05/16 09:17:45;;;;;;;12.40;2.50;;;;;;;25.83;29.62;100972.46;107535;1254;113107;-69
2023/05/16 09:20:16;;;;;;;11.00;2.30;;;;;;;25.88;29.76;100970.66;107626;1252;110147;-68
2023/05/16 09:22:53;;;;;;;10.80;2.50;;;;;;;25.96;29.59;100974.19;107602;1251;108574;-67
2023/05/16 09:25:23;;;;;;;7.80;2.50;;;;;;;26.05;29.34;100976.77;107636;1256;99183;-68
2023/05/16 09:27:57;;;;;;;4.90;2.30;;;;;;;26.15;29.28;100978.09;107593;1251;99789;-70
2023/05/16 09:30:30;;;;;;;8.20;2.00;;;;;;;26.25;29.54;100975.77;107589;1251;113566;-69
2023/05/16 09:32:59;;;;;;;7.90;2.90;;;;;;;26.30;29.27;100973.80;107635;1250;110125;-67
2023/05/16 09:35:27;;;;;;;10.80;2.90;;;;;;;26.30;29.15;100970.65;107595;1251;107481;-69
2023/05/16 09:37:59;;;;;;;7.00;2.80;;;;;;;26.30;29.01;100963.96;107541;1251;99239;-67
2023/05/16 09:40:40;;;;;;;7.90;2.30;;;;;;;26.39;29.16;100962.70;107616;1251;99182;-69
2023/05/16 09:43:08;;;;;;;7.00;2.10;;;;;;;26.57;28.88;100967.15;107602;1254;113057;-67
2023/05/16 09:45:37;;;;;;;9.20;2.40;;;;;;;26.85;28.48;100965.10;107552;1251;109572;-68
2023/05/16 09:48:11;;;;;;;12.10;2.30;;;;;;;27.32;27.83;100963.92;107613;1251;108737;-68
2023/05/16 09:50:48;;;;;;;6.50;2.40;;;;;;;27.59;27.28;100962.29;107582;1251;99155;-70
2023/05/16 09:53:17;;;;;;;12.40;3.10;;;;;;;27.59;27.49;100962.51;107620;1251;99185;-71
2023/05/16 09:55:45;;;;;;;8.00;2.80;;;;;;;27.46;27.86;100963.23;107634;1250;112959;-68
2023/05/16 09:58:17;;;;;;;16.00;3.60;;;;;;;27.29;28.06;100958.93;107421;1251;111513;-68
2023/05/16 10:00:46;;;;;;;19.20;3.30;;;;;;;27.25;28.15;100959.73;107581;1251;107577;-68
2023/05/16 10:03:14;;;;;;;15.50;2.60;;;;;;;27.25;28.56;100961.70;107609;1251;99173;-68
2023/05/16 10:05:43;;;;;;;6.60;2.90;;;;;;;27.24;28.38;100956.77;107576;1251;99156;-68
2023/05/16 10:08:13;;;;;;;11.80;2.20;;;;;;;27.21;27.87;100955.02;107636;1251;113242;-66
2023/05/16 10:10:41;;;;;;;8.50;3.00;;;;;;;27.13;27.32;100952.36;107582;1251;110618;-68
2023/05/16 10:13:11;;;;;;;5.90;1.90;;;;;;;27.02;27.06;100950.86;107618;1251;106884;-66
2023/05/16 10:15:40;;;;;;;10.30;2.10;;;;;;;27.02;27.11;100955.21;107584;1251;99161;-67
2023/05/16 10:18:12;;;;;;;4.00;2.30;;;;;;;27.13;27.16;100949.05;107656;1251;99140;-68
2023/05/16 10:20:43;;;;;;;8.20;2.10;;;;;;;27.46;26.76;100949.70;107634;1254;112577;-67
2023/05/16 10:23:16;;;;;;;12.20;3.70;;;;;;;27.92;26.73;100948.27;107672;1250;110110;-68
2023/05/16 10:25:47;;;;;;;5.80;2.00;;;;;;;28.68;25.54;100947.30;107665;1251;108233;-66
2023/05/16 10:28:15;;;;;;;6.50;2.00;;;;;;;29.38;25.00;100946.99;107624;1251;99224;-67
2023/05/16 10:30:45;;;;;;;7.30;2.20;;;;;;;29.83;24.61;100945.77;107620;1251;99051;-72
2023/05/16 10:33:16;;;;;;;12.40;2.60;;;;;;;30.10;24.10;100943.42;107636;1251;113726;-67
2023/05/16 10:35:45;;;;;;;12.50;2.20;;;;;;;29.94;24.35;100948.60;107619;1251;109085;-67
2023/05/16 10:38:16;;;;;;;6.70;1.90;;;;;;;29.51;24.64;100947.89;107596;1251;108127;-67
2023/05/16 10:40:46;;;;;;;5.60;2.00;;;;;;;29.12;24.86;100954.48;107559;1254;99160;-66
2023/05/16 10:43:24;;;;;;;7.10;2.10;;;;;;;28.72;24.93;100959.44;107632;1251;99162;-68
2023/05/16 10:45:58;;;;;;;5.00;2.30;;;;;;;28.37;25.46;100958.65;107670;1251;112200;-69
2023/05/16 10:48:29;;;;;;;7.80;2.20;;;;;;;27.94;26.20;100954.07;107591;1251;110264;-66
2023/05/16 10:50:58;;;;;;;8.80;2.30;;;;;;;27.61;26.59;100954.48;107584;1251;107488;-68
2023/05/16 10:53:32;;;;;;;5.50;2.20;;;;;;;27.36;27.42;100955.81;107561;1251;99157;-70
2023/05/16 10:56:02;;;;;;;7.50;2.40;;;;;;;27.17;28.08;100951.52;107637;1251;99156;-68
2023/05/16 10:58:34;;;;;;;7.30;1.80;;;;;;;27.09;28.48;100956.96;107608;1251;112400;-70
2023/05/16 11:01:17;;;;;;;7.20;2.40;;;;;;;27.06;28.73;100949.65;107634;1251;109503;-68
2023/05/16 11:03:58;;;;;;;19.70;2.40;;;;;;;27.46;28.70;100949.19;107626;1251;108289;-70
2023/05/16 11:06:51;;;;;;;10.10;2.70;;;;;;;28.30;28.18;100945.73;107559;1251;99310;-68
2023/05/16 11:09:26;;;;;;;10.60;2.00;;;;;;;29.40;26.34;100943.81;107619;1251;99172;-69
2023/05/16 11:11:59;;;;;;;7.90;2.50;;;;;;;30.23;25.39;100941.98;107497;1254;112745;-72
2023/05/16 11:14:31;;;;;;;3.40;2.10;;;;;;;30.69;24.58;100939.87;107572;1251;110200;-71
2023/05/16 11:17:21;;;;;;;10.10;2.20;;;;;;;30.64;24.49;100940.45;107594;1254;107458;-69
2023/05/16 11:19:51;;;;;;;6.50;2.00;;;;;;;30.61;24.43;100941.83;107660;1251;99187;-68
2023/05/16 11:22:20;;;;;;;10.70;2.90;;;;;;;30.68;24.35;100939.15;107599;1254;99236;-71
2023/05/16 11:25:04;;;;;;;17.60;2.40;;;;;;;31.08;23.70;100942.27;107672;1250;112733;-70